Time;durP1;ratioP1;P1;durP2;ratioP2;P2;SDS_P1;SDS_P2;PMS_P1;PMS_P2;Temp;Humidity;BMP_temperature;BMP_pressure;BME280_temperature;BME280_humidity;BME280_pressure;Samples;Min_cycle;Max_cycle;Signal;HPM_P1;HPM_P2
2023/02/16 06:34:29;;;;;;;25.95;14.20;;;15.50;64.70;;;;;;5362273;24;20511;-77
2023/02/16 06:36:55;;;;;;;29.42;13.68;;;15.50;64.70;;;;;;4854695;29;20072;-77
2023/02/16 06:39:21;;;;;;;34.88;14.48;;;15.50;64.60;;;;;;4848041;29;20480;-76
2023/02/16 06:41:47;;;;;;;23.65;12.70;;;15.60;64.40;;;;;;4861762;29;20050;-76
2023/02/16 06:44:14;;;;;;;35.22;16.13;;;15.70;64.30;;;;;;4862303;29;20109;-76
2023/02/16 06:46:45;;;;;;;33.50;19.25;;;15.70;64.10;;;;;;4862545;29;20046;-76
2023/02/16 06:49:19;;;;;;;32.70;17.45;;;15.70;63.20;;;;;;4862257;29;20057;-76
2023/02/16 06:51:46;;;;;;;37.30;17.13;;;15.70;63.30;;;;;;4862130;29;20181;-81
2023/02/16 06:54:12;;;;;;;35.88;17.52;;;15.70;63.50;;;;;;4815259;29;20239;-78
2023/02/16 06:56:38;;;;;;;30.67;16.33;;;15.80;63.50;;;;;;4843905;29;20145;-77
2023/02/16 06:59:05;;;;;;;32.17;16.63;;;15.90;63.60;;;;;;4843600;29;20263;-77
2023/02/16 07:01:31;;;;;;;34.22;17.55;;;15.90;63.40;;;;;;4843834;29;20050;-78
2023/02/16 07:03:57;;;;;;;28.63;18.02;;;15.80;61.10;;;;;;4828086;29;20061;-78
2023/02/16 07:06:35;;;;;;;31.25;19.52;;;15.70;62.20;;;;;;4812775;29;20059;-80
2023/02/16 07:09:01;;;;;;;33.80;19.08;;;15.70;62.00;;;;;;4827843;29;20053;-81
2023/02/16 07:11:28;;;;;;;30.77;17.35;;;15.70;62.00;;;;;;4846680;29;20056;-78
2023/02/16 07:13:53;;;;;;;36.30;21.63;;;15.80;62.20;;;;;;4831299;29;20038;-78
2023/02/16 07:16:19;;;;;;;45.85;19.55;;;15.50;60.20;;;;;;4845357;29;20477;-78
2023/02/16 07:18:46;;;;;;;28.75;17.73;;;15.30;62.10;;;;;;4849378;29;20385;-78
2023/02/16 07:21:12;;;;;;;28.98;17.52;;;15.30;62.70;;;;;;4848964;29;20050;-77
2023/02/16 07:23:37;;;;;;;28.15;17.98;;;15.30;62.80;;;;;;4865041;29;20124;-78
2023/02/16 07:26:04;;;;;;;28.63;17.52;;;15.40;62.80;;;;;;4865025;29;20049;-77
2023/02/16 07:28:29;;;;;;;26.27;16.67;;;15.30;62.60;;;;;;4864500;29;20123;-77
2023/02/16 07:30:55;;;;;;;27.35;17.63;;;15.30;62.50;;;;;;4848852;29;20053;-79
2023/02/16 07:33:21;;;;;;;28.30;18.85;;;15.40;62.60;;;;;;4848691;29;20056;-77
2023/02/16 07:35:47;;;;;;;26.92;18.23;;;15.30;62.50;;;;;;4864198;29;20061;-76
2023/02/16 07:38:12;;;;;;;31.25;18.67;;;15.40;62.60;;;;;;4864508;29;20057;-78
2023/02/16 07:40:38;;;;;;;28.10;17.63;;;15.40;62.80;;;;;;4849148;29;20453;-77
2023/02/16 07:43:05;;;;;;;27.23;18.80;;;15.40;63.00;;;;;;4857309;29;20101;-78
2023/02/16 07:45:31;;;;;;;26.35;18.65;;;15.40;62.90;;;;;;4864495;29;20053;-77
2023/02/16 07:47:58;;;;;;;33.92;20.48;;;15.40;62.60;;;;;;4848571;29;20084;-76
2023/02/16 07:50:24;;;;;;;32.72;20.58;;;15.40;62.30;;;;;;4864865;29;20068;-79
2023/02/16 07:52:49;;;;;;;28.83;19.45;;;15.40;62.10;;;;;;4847905;29;20066;-79
2023/02/16 07:55:15;;;;;;;32.33;19.95;;;15.40;62.00;;;;;;4864593;29;20357;-78
2023/02/16 07:57:41;;;;;;;28.17;19.17;;;15.40;61.90;;;;;;4864630;29;20053;-80
2023/02/16 08:00:08;;;;;;;26.67;19.48;;;15.40;61.90;;;;;;4863911;29;20479;-76
2023/02/16 08:02:34;;;;;;;32.47;18.02;;;15.40;61.70;;;;;;4864654;29;20050;-79
2023/02/16 08:05:03;;;;;;;28.98;18.10;;;15.50;61.80;;;;;;4848308;29;20125;-80
2023/02/16 08:07:29;;;;;;;29.40;19.80;;;15.50;61.80;;;;;;4864659;29;20133;-77
2023/02/16 08:09:54;;;;;;;28.85;18.83;;;15.50;61.50;;;;;;4863981;29;20132;-77
2023/02/16 08:12:20;;;;;;;31.25;18.92;;;15.50;61.30;;;;;;4863601;29;20064;-78
2023/02/16 08:14:46;;;;;;;27.27;18.67;;;15.50;61.40;;;;;;4857665;29;20050;-78
2023/02/16 08:17:12;;;;;;;26.50;17.73;;;15.50;61.30;;;;;;4846059;29;20060;-76
2023/02/16 08:19:39;;;;;;;24.35;18.08;;;15.50;61.50;;;;;;4847855;29;20086;-78
2023/02/16 08:22:06;;;;;;;27.80;18.48;;;15.40;61.70;;;;;;4860737;29;20056;-80
2023/02/16 11:14:44;;;;;;;21.50;14.60;;;15.80;63.30;;;;;;5612389;24;20480;-77
2023/02/16 11:17:13;;;;;;;28.73;14.38;;;15.80;63.20;;;;;;4854907;29;20061;-77
2023/02/16 11:19:47;;;;;;;24.83;14.38;;;15.90;63.50;;;;;;4830524;29;20046;-76
2023/02/16 11:22:36;;;;;;;22.00;13.77;;;15.90;63.90;;;;;;4861541;29;20281;-77
2023/02/16 11:25:32;;;;;;;20.92;12.93;;;15.90;64.00;;;;;;4846866;29;20054;-80
2023/02/16 11:28:00;;;;;;;26.63;12.90;;;15.90;64.00;;;;;;4848645;29;20064;-80
2023/02/16 11:30:33;;;;;;;28.63;13.73;;;15.90;64.10;;;;;;4864007;29;20049;-80
2023/02/16 11:33:01;;;;;;;32.08;14.45;;;15.90;64.30;;;;;;4863441;29;20124;-80
2023/02/16 11:35:39;;;;;;;28.52;13.27;;;15.90;64.50;;;;;;4863441;29;20109;-74
2023/02/16 11:38:51;;;;;;;34.28;14.65;;;15.90;64.60;;;;;;5018262;24;20603;-75
2023/02/16 11:41:23;;;;;;;36.43;16.07;;;15.90;64.60;;;;;;4866981;29;20068;-79
2023/02/16 11:43:49;;;;;;;35.75;17.90;;;15.90;64.60;;;;;;4883505;29;20361;-79
2023/02/16 11:46:20;;;;;;;35.90;18.13;;;15.90;64.70;;;;;;4880214;29;20056;-81
2023/02/16 11:48:49;;;;;;;33.20;18.20;;;15.90;64.60;;;;;;4883283;29;20135;-77
2023/02/16 11:51:32;;;;;;;40.25;18.35;;;15.90;64.70;;;;;;4883194;29;20049;-78
2023/02/16 11:54:04;;;;;;;30.20;19.50;;;15.90;64.80;;;;;;4851492;29;20124;-77
2023/02/16 11:56:35;;;;;;;40.45;23.02;;;15.90;64.50;;;;;;4865134;29;20055;-73
2023/02/16 11:59:18;;;;;;;44.22;23.73;;;15.90;64.20;;;;;;4852021;29;20068;-78
2023/02/16 12:02:10;;;;;;;36.15;21.08;;;15.90;64.30;;;;;;4883479;29;20059;-78
2023/02/16 12:04:56;;;;;;;37.47;21.63;;;15.90;64.10;;;;;;4882808;29;20060;-72
2023/02/16 12:07:40;;;;;;;33.08;21.40;;;15.80;63.80;;;;;;4882680;29;20452;-71
2023/02/16 12:10:37;;;;;;;38.80;22.63;;;15.80;63.60;;;;;;4883178;29;20088;-72
2023/02/16 12:13:23;;;;;;;34.47;21.25;;;15.80;63.60;;;;;;4882625;29;20123;-72
2023/02/16 12:16:00;;;;;;;34.25;22.27;;;15.80;63.50;;;;;;4882769;29;20057;-71
2023/02/16 12:18:33;;;;;;;35.22;22.02;;;15.80;63.40;;;;;;4866480;29;20052;-72
2023/02/16 12:21:21;;;;;;;32.65;20.17;;;15.80;63.30;;;;;;4879644;29;20048;-76
2023/02/16 12:24:01;;;;;;;33.38;20.42;;;15.80;63.30;;;;;;4877924;29;20049;-73
2023/02/16 12:26:33;;;;;;;32.45;20.67;;;15.80;63.40;;;;;;4868854;29;20063;-71
2023/02/16 12:29:28;;;;;;;31.13;20.60;;;15.80;63.50;;;;;;4879402;29;20060;-71
2023/02/16 12:32:32;;;;;;;32.95;21.67;;;15.70;63.50;;;;;;4862219;29;20412;-79
2023/02/16 12:35:22;;;;;;;32.03;21.98;;;15.70;63.30;;;;;;4876783;29;20144;-79
2023/02/16 12:38:15;;;;;;;31.08;21.88;;;15.70;63.40;;;;;;4850756;29;20480;-80
2023/02/16 12:40:56;;;;;;;34.03;21.15;;;15.70;63.70;;;;;;4860017;29;20056;-78
2023/02/16 12:43:36;;;;;;;29.15;21.60;;;15.60;63.90;;;;;;4880840;29;20068;-81
2023/02/16 12:46:16;;;;;;;27.50;19.75;;;15.60;64.10;;;;;;4868577;29;20457;-78
2023/02/16 12:48:54;;;;;;;25.42;19.15;;;15.60;64.20;;;;;;4880189;29;20041;-79
2023/02/16 12:51:38;;;;;;;30.52;20.17;;;15.50;64.30;;;;;;4879928;29;20440;-76
2023/02/16 12:54:18;;;;;;;27.63;18.75;;;15.60;64.50;;;;;;4864075;29;20086;-80
2023/02/16 12:56:49;;;;;;;28.40;19.80;;;15.50;64.50;;;;;;4880528;29;20052;-79
2023/02/16 12:59:55;;;;;;;31.17;20.45;;;15.50;64.40;;;;;;4860607;29;20052;-78
2023/02/16 13:02:41;;;;;;;30.10;18.63;;;15.50;64.30;;;;;;4863736;29;20056;-79
2023/02/16 13:05:20;;;;;;;28.45;18.48;;;15.60;64.40;;;;;;4880849;29;20077;-75
2023/02/16 13:07:51;;;;;;;30.42;18.10;;;15.50;64.40;;;;;;4880634;29;20379;-79
2023/02/16 13:10:23;;;;;;;25.65;17.55;;;15.50;65.00;;;;;;4863385;29;20080;-80
2023/02/16 13:12:54;;;;;;;25.92;16.98;;;15.50;64.30;;;;;;4881399;29;20048;-78
2023/02/16 13:15:26;;;;;;;23.45;16.38;;;15.50;64.20;;;;;;4880268;29;20479;-78
2023/02/16 13:18:01;;;;;;;27.23;15.50;;;15.50;64.40;;;;;;4880983;29;20041;-81
2023/02/16 13:20:26;;;;;;;24.58;16.25;;;15.60;64.60;;;;;;4880882;29;20357;-81
2023/02/16 13:22:57;;;;;;;22.05;13.90;;;15.70;64.60;;;;;;4881152;29;20060;-79
2023/02/16 13:25:32;;;;;;;22.90;14.43;;;15.80;64.60;;;;;;4880316;29;20099;-80
2023/02/16 13:28:26;;;;;;;21.27;14.23;;;15.90;64.50;;;;;;4879150;29;20044;-80
2023/02/16 13:30:54;;;;;;;20.87;12.17;;;16.00;64.20;;;;;;4880853;29;20067;-81
2023/02/16 13:33:36;;;;;;;16.73;13.27;;;16.10;64.30;;;;;;4864609;29;20084;-80
2023/02/16 13:36:09;;;;;;;18.92;12.43;;;16.20;64.10;;;;;;4879687;29;20053;-79
2023/02/16 13:38:46;;;;;;;21.13;13.82;;;16.20;63.90;;;;;;4862319;29;20104;-82
2023/02/16 13:41:33;;;;;;;20.10;11.75;;;16.20;63.90;;;;;;4880495;29;20072;-81
2023/02/16 13:44:16;;;;;;;24.73;12.57;;;16.30;63.80;;;;;;4862893;29;20053;-81
2023/02/16 13:46:50;;;;;;;20.98;12.55;;;16.30;63.80;;;;;;4863011;29;20520;-78
2023/02/16 13:49:28;;;;;;;19.80;12.63;;;16.30;63.80;;;;;;4847156;29;20505;-81
2023/02/16 13:51:54;;;;;;;17.48;12.40;;;16.30;63.90;;;;;;4846855;29;20131;-81
2023/02/16 13:54:33;;;;;;;19.88;11.98;;;16.40;63.90;;;;;;4865127;29;20201;-82
2023/02/16 13:57:03;;;;;;;19.88;11.50;;;16.40;63.90;;;;;;4880920;29;20165;-77
2023/02/16 13:59:28;;;;;;;19.30;10.98;;;16.50;63.70;;;;;;4880186;29;20048;-79
2023/02/16 14:01:56;;;;;;;17.77;11.48;;;16.50;63.60;;;;;;4864734;29;20049;-73
2023/02/16 14:04:22;;;;;;;16.08;10.52;;;16.60;63.50;;;;;;4881616;29;20160;-71
2023/02/16 14:07:00;;;;;;;14.88;10.13;;;16.70;63.40;;;;;;4880139;29;20485;-72
2023/02/16 14:09:45;;;;;;;14.98;10.52;;;16.80;63.10;;;;;;4881002;29;20073;-74
2023/02/16 14:12:16;;;;;;;23.95;10.90;;;16.80;63.00;;;;;;4880258;29;20193;-73
2023/02/16 14:14:41;;;;;;;19.73;10.75;;;16.80;63.10;;;;;;4880902;29;20049;-73
2023/02/16 14:17:22;;;;;;;25.55;12.52;;;16.80;63.30;;;;;;4879791;29;20075;-81
2023/02/16 14:20:08;;;;;;;22.70;12.63;;;16.80;63.40;;;;;;4883388;29;20056;-79
2023/02/16 14:22:33;;;;;;;24.25;12.18;;;16.90;63.70;;;;;;4861991;29;20053;-81
2023/02/16 14:25:03;;;;;;;29.95;11.32;;;16.60;63.40;;;;;;4884941;29;20064;-81
2023/02/16 14:27:50;;;;;;;24.17;13.15;;;16.50;64.50;;;;;;4867919;29;20049;-82
2023/02/16 14:30:33;;;;;;;21.48;12.15;;;16.50;64.30;;;;;;4868207;29;20084;-80
2023/02/16 14:33:11;;;;;;;21.83;12.17;;;16.50;64.80;;;;;;4852767;29;20140;-80
2023/02/16 14:35:40;;;;;;;25.33;13.10;;;16.50;64.50;;;;;;4882922;29;20400;-78
2023/02/16 14:38:16;;;;;;;25.05;14.07;;;16.50;64.30;;;;;;4852862;29;20128;-78
2023/02/16 14:40:54;;;;;;;27.08;13.77;;;16.50;64.00;;;;;;4867958;29;20067;-78
2023/02/16 14:43:27;;;;;;;21.48;14.95;;;16.50;63.90;;;;;;4884814;29;20057;-79
2023/02/16 14:46:11;;;;;;;22.23;14.53;;;16.50;63.80;;;;;;4867469;29;20124;-79
2023/02/16 14:48:59;;;;;;;23.65;14.75;;;16.50;63.80;;;;;;4884782;29;20436;-80
2023/02/16 14:51:34;;;;;;;22.65;13.60;;;16.40;63.60;;;;;;4885063;29;20076;-80
2023/02/16 14:54:30;;;;;;;20.42;14.20;;;16.40;63.60;;;;;;4867571;29;20372;-78
2023/02/16 14:57:23;;;;;;;22.58;13.25;;;16.40;63.60;;;;;;4882962;29;20049;-80
2023/02/16 14:59:56;;;;;;;22.20;13.50;;;16.30;63.50;;;;;;4879950;29;20471;-80
2023/02/16 15:02:32;;;;;;;19.15;13.25;;;16.30;63.60;;;;;;4867986;29;20521;-79
2023/02/16 15:05:17;;;;;;;17.55;13.07;;;16.30;63.50;;;;;;4851785;29;20121;-78
2023/02/16 15:07:46;;;;;;;19.15;13.38;;;16.30;63.40;;;;;;4884012;29;20479;-78
2023/02/16 15:10:13;;;;;;;21.05;13.77;;;16.20;63.50;;;;;;4884336;29;20053;-80
2023/02/16 15:12:40;;;;;;;17.92;13.02;;;16.20;63.40;;;;;;4884793;29;20334;-80
2023/02/16 15:15:12;;;;;;;19.30;13.93;;;16.20;63.70;;;;;;4883489;29;20475;-80
2023/02/16 15:17:47;;;;;;;22.38;15.02;;;16.20;63.80;;;;;;4867221;29;20060;-79
2023/02/16 15:20:37;;;;;;;17.88;14.95;;;16.20;63.30;;;;;;4884120;29;20385;-79
2023/02/16 15:23:16;;;;;;;22.40;16.25;;;16.20;63.00;;;;;;4867115;29;20085;-78
2023/02/16 15:25:50;;;;;;;20.33;15.45;;;16.10;62.80;;;;;;4883993;29;20383;-80
2023/02/16 15:28:24;;;;;;;24.95;19.85;;;16.20;63.10;;;;;;4867360;29;20329;-81
2023/02/16 15:30:57;;;;;;;25.55;21.02;;;16.00;62.60;;;;;;4850765;29;20041;-76
2023/02/16 15:37:29;;;;;;;27.63;21.63;;;15.60;62.90;;;;;;4883196;29;20108;-73
2023/02/16 15:39:55;;;;;;;30.73;21.73;;;15.40;63.30;;;;;;4883366;29;20143;-75
2023/02/16 15:42:25;;;;;;;24.88;20.27;;;15.20;64.00;;;;;;4883378;29;20052;-77
2023/02/16 15:44:51;;;;;;;22.52;18.70;;;15.20;64.90;;;;;;4883342;29;20080;-74
2023/02/16 15:47:23;;;;;;;20.60;17.52;;;15.20;64.20;;;;;;4883663;29;20487;-73
2023/02/16 15:49:49;;;;;;;23.25;17.30;;;15.30;64.20;;;;;;4866546;29;20512;-74
2023/02/16 15:52:20;;;;;;;20.17;15.75;;;15.50;64.20;;;;;;4867576;29;20436;-73
2023/02/16 15:54:47;;;;;;;23.02;16.05;;;15.60;64.40;;;;;;4882513;29;20049;-81
2023/02/16 15:57:22;;;;;;;22.27;15.00;;;15.80;65.10;;;;;;4883200;29;20049;-80
2023/02/16 15:59:54;;;;;;;33.75;16.08;;;15.90;65.00;;;;;;4882949;29;20037;-80
2023/02/16 16:02:42;;;;;;;30.30;16.85;;;16.00;65.40;;;;;;4883316;29;20041;-76
2023/02/16 16:05:34;;;;;;;29.75;14.68;;;16.10;66.20;;;;;;4866275;29;20056;-76
2023/02/16 16:08:00;;;;;;;33.70;20.65;;;16.10;66.80;;;;;;4882783;29;20037;-77
2023/02/16 16:10:34;;;;;;;30.65;16.05;;;16.20;70.40;;;;;;4882251;29;20049;-81
2023/02/16 16:13:05;;;;;;;27.23;16.80;;;16.20;72.00;;;;;;4866650;29;20080;-80
2023/02/16 16:15:39;;;;;;;25.90;13.30;;;16.20;71.20;;;;;;4850313;29;20476;-77
2023/02/16 16:18:05;;;;;;;29.80;13.80;;;16.30;70.10;;;;;;4882772;29;20072;-78
2023/02/16 16:20:31;;;;;;;25.08;12.65;;;16.20;69.40;;;;;;4882291;29;20064;-79
2023/02/16 16:23:13;;;;;;;34.17;13.23;;;16.20;68.80;;;;;;4882682;29;20037;-80
2023/02/16 16:25:43;;;;;;;22.65;12.20;;;16.30;68.70;;;;;;4882075;29;20116;-81
2023/02/16 16:28:25;;;;;;;29.10;12.40;;;16.30;68.70;;;;;;4882695;29;20064;-80
2023/02/16 16:31:16;;;;;;;22.30;11.15;;;16.30;69.20;;;;;;4882649;29;20504;-79
2023/02/16 16:33:50;;;;;;;22.42;10.48;;;16.30;69.60;;;;;;4865432;29;20055;-78
2023/02/16 16:36:16;;;;;;;21.33;9.55;;;16.30;69.80;;;;;;4882253;29;20061;-79
2023/02/16 16:38:42;;;;;;;24.20;10.10;;;16.40;69.80;;;;;;4866575;29;20053;-73
2023/02/16 16:41:26;;;;;;;19.42;10.23;;;16.40;70.00;;;;;;4882762;29;20079;-73
2023/02/16 16:43:55;;;;;;;24.30;9.88;;;16.40;70.10;;;;;;4882219;29;20116;-77
2023/02/16 16:46:29;;;;;;;27.13;10.35;;;16.40;70.00;;;;;;4882782;29;20338;-78
2023/02/16 16:49:02;;;;;;;26.77;9.23;;;16.40;70.10;;;;;;4882294;29;20433;-75
2023/02/16 16:51:41;;;;;;;18.33;8.60;;;16.50;70.00;;;;;;4865931;29;20097;-77
2023/02/16 16:54:29;;;;;;;24.48;9.23;;;16.40;70.10;;;;;;4881271;29;20053;-78
2023/02/16 16:56:55;;;;;;;16.85;8.10;;;16.40;70.10;;;;;;4865849;29;20368;-77
2023/02/16 16:59:21;;;;;;;17.85;7.53;;;16.40;69.90;;;;;;4865876;29;20052;-78
2023/02/16 17:01:49;;;;;;;22.73;8.10;;;16.40;69.90;;;;;;4881723;29;20056;-77
2023/02/16 17:04:15;;;;;;;22.23;7.10;;;16.50;70.10;;;;;;4881257;29;20061;-79
2023/02/16 17:06:41;;;;;;;27.95;6.90;;;16.50;70.10;;;;;;4881535;29;20053;-78
2023/02/16 17:09:07;;;;;;;25.77;6.65;;;16.60;69.90;;;;;;4880788;29;20107;-78
2023/02/16 17:11:36;;;;;;;25.02;6.57;;;16.70;70.30;;;;;;4865916;29;20477;-78
2023/02/16 17:14:13;;;;;;;23.02;6.93;;;16.70;69.50;;;;;;4865288;29;20067;-74
2023/02/16 17:16:42;;;;;;;20.48;6.38;;;16.70;69.50;;;;;;4865950;29;20128;-79
2023/02/16 17:19:15;;;;;;;18.80;6.45;;;16.70;69.30;;;;;;4881503;29;20144;-77
2023/02/16 17:21:41;;;;;;;19.43;6.23;;;16.70;69.30;;;;;;4881853;29;20476;-78
2023/02/16 17:24:08;;;;;;;18.20;6.63;;;16.70;69.10;;;;;;4871010;29;20430;-78
2023/02/16 17:26:36;;;;;;;20.38;5.93;;;16.70;69.40;;;;;;4881820;29;20075;-76
2023/02/16 17:29:03;;;;;;;16.10;6.45;;;16.70;69.40;;;;;;4879222;29;20052;-77
2023/02/16 17:31:29;;;;;;;16.60;6.50;;;16.70;68.70;;;;;;4854214;29;20053;-76
2023/02/16 17:33:54;;;;;;;17.38;7.20;;;16.60;68.30;;;;;;4872428;29;20157;-76
2023/02/16 17:36:23;;;;;;;15.60;5.80;;;16.60;68.00;;;;;;4874097;29;20338;-75
2023/02/16 17:38:48;;;;;;;15.65;7.25;;;16.60;67.90;;;;;;4872002;29;20045;-76
2023/02/16 17:41:20;;;;;;;10.77;5.78;;;16.60;67.50;;;;;;4870290;29;20069;-77
2023/02/16 17:43:46;;;;;;;10.27;6.40;;;16.50;67.30;;;;;;4874007;29;20041;-75
2023/02/16 17:46:13;;;;;;;11.68;6.35;;;16.50;67.20;;;;;;4873468;29;20102;-76
2023/02/16 17:48:39;;;;;;;10.20;6.55;;;16.50;66.90;;;;;;4870722;29;20101;-75
2023/02/16 17:51:11;;;;;;;16.27;6.05;;;16.40;66.90;;;;;;4871903;29;20097;-75
2023/02/16 17:53:37;;;;;;;11.52;6.30;;;16.40;67.00;;;;;;4873576;29;20504;-77
2023/02/16 17:56:03;;;;;;;11.90;6.32;;;16.40;67.70;;;;;;4871817;29;20053;-76
2023/02/16 17:58:29;;;;;;;7.20;5.38;;;16.40;67.20;;;;;;4871309;29;20500;-78
2023/02/16 18:00:55;;;;;;;9.10;6.10;;;16.30;67.20;;;;;;4872346;29;20491;-76
2023/02/16 18:03:21;;;;;;;9.68;5.38;;;16.30;67.20;;;;;;4856028;29;20045;-75
2023/02/16 18:05:49;;;;;;;9.10;5.43;;;16.30;67.30;;;;;;4861697;29;20052;-75
2023/02/16 18:08:14;;;;;;;10.52;5.60;;;16.20;67.30;;;;;;4881250;29;20132;-78
2023/02/16 18:10:46;;;;;;;13.15;6.72;;;16.20;67.30;;;;;;4881155;29;20135;-75
2023/02/16 18:13:13;;;;;;;10.75;5.22;;;16.20;67.40;;;;;;4880766;29;20048;-76
2023/02/16 18:15:41;;;;;;;9.15;6.28;;;16.20;67.40;;;;;;4880873;29;20431;-75
2023/02/16 18:18:07;;;;;;;10.50;5.50;;;16.20;67.40;;;;;;4881209;29;20092;-77
2023/02/16 18:20:33;;;;;;;8.90;5.25;;;16.20;67.40;;;;;;4881849;29;20423;-77
2023/02/16 18:22:59;;;;;;;8.35;4.97;;;16.10;67.30;;;;;;4880673;29;20128;-77
2023/02/16 18:25:25;;;;;;;10.65;4.93;;;16.10;67.30;;;;;;4862889;29;20084;-76
2023/02/16 18:27:50;;;;;;;13.57;6.15;;;16.10;67.10;;;;;;4862653;29;20119;-76
2023/02/16 18:30:16;;;;;;;6.90;5.40;;;16.00;67.10;;;;;;4831314;29;20132;-74
2023/02/16 18:32:44;;;;;;;15.68;5.65;;;16.00;67.10;;;;;;4871011;29;20095;-77
2023/02/16 18:35:11;;;;;;;16.45;5.65;;;16.00;67.10;;;;;;4880132;29;20479;-74
2023/02/16 18:37:37;;;;;;;30.30;5.22;;;16.00;67.20;;;;;;4880675;29;20057;-75
2023/02/16 18:40:05;;;;;;;9.85;5.65;;;16.00;67.20;;;;;;4880749;29;20120;-77
2023/02/16 18:42:31;;;;;;;18.42;5.97;;;16.00;67.60;;;;;;4876193;29;20057;-77
2023/02/16 18:44:57;;;;;;;15.68;6.88;;;16.00;68.00;;;;;;4880922;29;20045;-77
2023/02/16 18:47:23;;;;;;;12.52;4.90;;;16.00;68.00;;;;;;4881663;29;20060;-77
2023/02/16 18:49:49;;;;;;;22.20;5.80;;;16.00;68.20;;;;;;4871637;29;20593;-77
2023/02/16 18:52:15;;;;;;;13.85;5.82;;;15.90;68.30;;;;;;4872329;29;20057;-76
2023/02/16 18:54:41;;;;;;;9.38;4.68;;;16.00;68.40;;;;;;4880717;29;20433;-77
2023/02/16 18:57:07;;;;;;;13.05;4.82;;;15.90;68.30;;;;;;4848969;29;20084;-76
2023/02/16 18:59:33;;;;;;;9.30;4.70;;;15.90;68.20;;;;;;4880959;29;20468;-76
2023/02/16 19:02:00;;;;;;;11.20;4.45;;;15.90;68.10;;;;;;4864087;29;20465;-76
2023/02/16 19:04:26;;;;;;;9.50;4.57;;;15.90;68.10;;;;;;4864659;29;20067;-77
2023/02/16 19:06:52;;;;;;;7.45;3.90;;;15.90;68.10;;;;;;4884054;29;20132;-78
2023/02/16 19:09:18;;;;;;;9.88;4.47;;;15.90;68.00;;;;;;4883973;29;20123;-77
2023/02/16 19:11:44;;;;;;;9.25;4.65;;;15.90;68.00;;;;;;4884205;29;20041;-77
2023/02/16 19:14:10;;;;;;;7.05;3.28;;;15.90;68.00;;;;;;4884034;29;20488;-77
2023/02/16 19:16:37;;;;;;;10.48;4.10;;;15.90;68.00;;;;;;4884849;29;20091;-78
2023/02/16 19:19:03;;;;;;;6.05;3.75;;;15.80;68.00;;;;;;4866609;29;20081;-77
2023/02/16 19:21:29;;;;;;;7.78;3.13;;;15.80;68.00;;;;;;4867058;29;20080;-77
2023/02/16 19:23:54;;;;;;;5.80;3.30;;;15.80;68.10;;;;;;4875310;29;20076;-77
2023/02/16 19:26:21;;;;;;;10.55;3.47;;;15.80;68.10;;;;;;4883779;29;20041;-76
2023/02/16 19:28:47;;;;;;;4.95;3.15;;;15.80;68.10;;;;;;4884462;29;20479;-76
2023/02/16 19:31:22;;;;;;;6.25;2.90;;;15.80;68.10;;;;;;4883782;29;20065;-78
2023/02/16 19:33:48;;;;;;;4.95;3.30;;;15.80;68.20;;;;;;4883875;29;20460;-76
2023/02/16 19:36:15;;;;;;;4.30;3.15;;;15.70;68.30;;;;;;4883549;29;20061;-78
2023/02/16 19:38:41;;;;;;;6.20;3.30;;;15.70;68.30;;;;;;4868018;29;20054;-77
2023/02/16 19:41:13;;;;;;;6.03;2.85;;;15.70;68.40;;;;;;4881432;29;20076;-77
2023/02/16 19:43:40;;;;;;;5.82;3.20;;;15.70;68.40;;;;;;4883619;29;20091;-78
2023/02/16 19:46:06;;;;;;;11.48;3.10;;;15.70;68.40;;;;;;4867215;29;20052;-76
2023/02/16 19:48:32;;;;;;;4.85;2.78;;;15.70;68.30;;;;;;4862560;29;20140;-76
2023/02/16 19:51:00;;;;;;;5.95;2.70;;;15.70;68.30;;;;;;4869469;29;20116;-72
2023/02/16 19:53:26;;;;;;;4.80;2.63;;;15.70;68.40;;;;;;4883675;29;20384;-77
2023/02/16 19:55:53;;;;;;;5.88;2.30;;;15.70;68.20;;;;;;4867363;29;20052;-77
2023/02/16 19:58:20;;;;;;;6.45;2.15;;;15.70;68.10;;;;;;4883477;29;20052;-76
2023/02/16 20:00:46;;;;;;;3.95;2.28;;;15.70;68.00;;;;;;4883048;29;20528;-77
2023/02/16 20:03:12;;;;;;;3.03;2.08;;;15.60;68.50;;;;;;4867192;29;20053;-75
2023/02/16 20:05:39;;;;;;;3.33;2.28;;;15.70;68.30;;;;;;4877872;29;20045;-75
2023/02/16 20:08:05;;;;;;;3.45;1.80;;;15.60;68.20;;;;;;4864502;29;20061;-77
2023/02/16 20:10:32;;;;;;;3.50;1.98;;;15.70;68.20;;;;;;4871499;29;20049;-72
2023/02/16 20:12:59;;;;;;;3.78;2.17;;;15.60;68.10;;;;;;4883145;29;20060;-71
2023/02/16 20:15:25;;;;;;;2.20;1.70;;;15.60;68.00;;;;;;4882736;29;20049;-72
2023/02/16 20:17:52;;;;;;;4.53;2.33;;;15.70;68.00;;;;;;4871017;29;20046;-77
2023/02/16 20:20:17;;;;;;;2.55;1.98;;;15.70;68.00;;;;;;4836681;29;20057;-76
2023/02/16 20:22:43;;;;;;;3.65;2.22;;;15.70;68.20;;;;;;4877057;29;20045;-76
2023/02/16 20:25:09;;;;;;;4.32;1.95;;;15.70;68.30;;;;;;4856895;29;20095;-75
2023/02/16 20:27:35;;;;;;;2.40;1.77;;;15.60;68.30;;;;;;4858738;29;20056;-76
2023/02/16 20:30:04;;;;;;;3.75;1.45;;;15.60;68.40;;;;;;4882526;29;20056;-76
2023/02/16 20:32:31;;;;;;;2.72;1.60;;;15.60;68.50;;;;;;4863764;29;20061;-75
2023/02/16 20:34:57;;;;;;;2.10;1.85;;;15.60;68.50;;;;;;4861822;29;20077;-76
2023/02/16 20:37:23;;;;;;;4.45;1.90;;;15.60;68.50;;;;;;4876477;29;20424;-75
2023/02/16 20:39:49;;;;;;;4.40;1.90;;;15.60;68.60;;;;;;4870677;29;20065;-76
2023/02/16 20:42:15;;;;;;;2.17;1.65;;;15.60;68.50;;;;;;4847900;29;20057;-77
2023/02/16 20:44:41;;;;;;;2.63;1.60;;;15.60;68.50;;;;;;4881898;29;20064;-76
2023/02/16 20:47:08;;;;;;;7.05;2.03;;;15.60;68.40;;;;;;4881111;29;20045;-77
2023/02/16 20:49:34;;;;;;;3.70;2.10;;;15.60;68.60;;;;;;4878208;29;20045;-74
2023/02/16 20:52:00;;;;;;;4.40;2.38;;;15.60;68.60;;;;;;4882250;29;20368;-77
2023/02/16 20:54:26;;;;;;;4.78;1.92;;;15.50;68.50;;;;;;4882140;29;20379;-76
2023/02/16 20:56:52;;;;;;;5.00;2.08;;;15.50;68.40;;;;;;4871832;29;20044;-76
2023/02/16 20:59:18;;;;;;;3.97;2.08;;;15.50;68.40;;;;;;4882250;29;20131;-78
2023/02/16 21:01:46;;;;;;;2.88;1.95;;;15.50;68.40;;;;;;4882665;29;20052;-76
2023/02/16 21:04:14;;;;;;;4.95;1.98;;;15.50;68.50;;;;;;4881846;29;20137;-78
2023/02/16 21:06:40;;;;;;;2.85;2.15;;;15.50;68.60;;;;;;4881784;29;20044;-76
2023/02/16 21:09:08;;;;;;;4.00;2.40;;;15.50;68.60;;;;;;4874981;29;20045;-78
2023/02/16 21:11:34;;;;;;;2.55;2.17;;;15.40;68.60;;;;;;4877182;29;20048;-75
2023/02/16 21:14:01;;;;;;;1.98;1.75;;;15.40;68.50;;;;;;4880722;29;20060;-77
2023/02/16 21:16:27;;;;;;;2.58;2.03;;;15.40;68.40;;;;;;4853242;29;20481;-74
2023/02/16 21:18:53;;;;;;;3.05;1.90;;;15.40;68.40;;;;;;4881844;29;20061;-73
2023/02/16 21:21:19;;;;;;;2.50;2.00;;;15.40;68.40;;;;;;4881800;29;20060;-77
2023/02/16 21:23:48;;;;;;;8.40;2.30;;;15.40;68.40;;;;;;4881758;29;20517;-77
